sensor_id;sensor_type;location;lat;lon;timestamp;P1;durP1;ratioP1;P2;durP2;ratioP2
32535;SDS011;18974;50.838;4.636;2023-07-16T00:00:46;21.13;;;5.13;;
32535;SDS011;18974;50.838;4.636;2023-07-16T00:03:14;7.22;;;4.10;;
32535;SDS011;18974;50.838;4.636;2023-07-16T00:05:40;12.43;;;4.10;;
32535;SDS011;18974;50.838;4.636;2023-07-16T00:08:06;13.43;;;4.25;;
32535;SDS011;18974;50.838;4.636;2023-07-16T00:10:35;14.05;;;4.40;;
32535;SDS011;18974;50.838;4.636;2023-07-16T00:13:02;21.90;;;4.78;;
32535;SDS011;18974;50.838;4.636;2023-07-16T00:15:28;14.57;;;4.00;;
32535;SDS011;18974;50.838;4.636;2023-07-16T00:17:54;13.65;;;4.55;;
32535;SDS011;18974;50.838;4.636;2023-07-16T00:20:20;13.70;;;4.68;;
32535;SDS011;18974;50.838;4.636;2023-07-16T00:22:48;9.75;;;4.30;;
32535;SDS011;18974;50.838;4.636;2023-07-16T00:25:14;9.73;;;3.95;;
32535;SDS011;18974;50.838;4.636;2023-07-16T00:27:40;14.55;;;4.53;;
32535;SDS011;18974;50.838;4.636;2023-07-16T00:30:07;16.90;;;4.68;;
32535;SDS011;18974;50.838;4.636;2023-07-16T00:32:33;10.50;;;4.43;;
32535;SDS011;18974;50.838;4.636;2023-07-16T00:34:59;15.50;;;4.18;;
32535;SDS011;18974;50.838;4.636;2023-07-16T00:37:25;9.18;;;4.07;;
32535;SDS011;18974;50.838;4.636;2023-07-16T00:39:51;15.38;;;4.60;;
32535;SDS011;18974;50.838;4.636;2023-07-16T00:42:17;20.88;;;5.15;;
32535;SDS011;18974;50.838;4.636;2023-07-16T00:44:42;15.07;;;4.18;;
32535;SDS011;18974;50.838;4.636;2023-07-16T00:47:08;14.40;;;3.83;;
32535;SDS011;18974;50.838;4.636;2023-07-16T00:49:34;19.98;;;4.90;;
32535;SDS011;18974;50.838;4.636;2023-07-16T00:52:00;19.38;;;4.05;;
32535;SDS011;18974;50.838;4.636;2023-07-16T00:54:27;17.98;;;4.15;;
32535;SDS011;18974;50.838;4.636;2023-07-16T00:56:57;12.70;;;3.85;;
32535;SDS011;18974;50.838;4.636;2023-07-16T00:59:22;13.50;;;4.05;;
32535;SDS011;18974;50.838;4.636;2023-07-16T01:01:48;17.83;;;4.30;;
32535;SDS011;18974;50.838;4.636;2023-07-16T01:04:14;22.60;;;4.03;;
32535;SDS011;18974;50.838;4.636;2023-07-16T01:06:41;20.08;;;3.90;;
32535;SDS011;18974;50.838;4.636;2023-07-16T01:09:15;12.27;;;3.33;;
32535;SDS011;18974;50.838;4.636;2023-07-16T01:11:45;9.13;;;3.60;;
32535;SDS011;18974;50.838;4.636;2023-07-16T01:14:18;11.02;;;3.83;;
32535;SDS011;18974;50.838;4.636;2023-07-16T01:16:44;14.80;;;3.58;;
32535;SDS011;18974;50.838;4.636;2023-07-16T01:19:09;14.23;;;4.05;;
32535;SDS011;18974;50.838;4.636;2023-07-16T01:21:47;18.83;;;4.00;;
32535;SDS011;18974;50.838;4.636;2023-07-16T01:24:26;14.63;;;3.65;;
32535;SDS011;18974;50.838;4.636;2023-07-16T01:30:08;16.70;;;3.92;;
32535;SDS011;18974;50.838;4.636;2023-07-16T01:32:40;14.27;;;3.67;;
32535;SDS011;18974;50.838;4.636;2023-07-16T01:35:06;15.73;;;3.45;;
32535;SDS011;18974;50.838;4.636;2023-07-16T01:37:34;13.90;;;4.13;;
32535;SDS011;18974;50.838;4.636;2023-07-16T01:40:00;13.57;;;3.40;;
32535;SDS011;18974;50.838;4.636;2023-07-16T01:42:26;15.73;;;3.97;;
32535;SDS011;18974;50.838;4.636;2023-07-16T01:44:53;10.05;;;3.95;;
32535;SDS011;18974;50.838;4.636;2023-07-16T01:47:23;18.95;;;4.18;;
32535;SDS011;18974;50.838;4.636;2023-07-16T01:50:05;9.98;;;3.55;;
32535;SDS011;18974;50.838;4.636;2023-07-16T01:52:32;15.73;;;3.85;;
32535;SDS011;18974;50.838;4.636;2023-07-16T01:54:57;16.35;;;4.10;;
32535;SDS011;18974;50.838;4.636;2023-07-16T01:57:23;12.38;;;4.07;;
32535;SDS011;18974;50.838;4.636;2023-07-16T01:59:48;14.43;;;4.57;;
32535;SDS011;18974;50.838;4.636;2023-07-16T02:02:14;17.98;;;4.43;;
32535;SDS011;18974;50.838;4.636;2023-07-16T02:04:40;10.43;;;3.80;;
32535;SDS011;18974;50.838;4.636;2023-07-16T02:07:05;14.85;;;4.40;;
32535;SDS011;18974;50.838;4.636;2023-07-16T02:09:31;17.17;;;4.00;;
32535;SDS011;18974;50.838;4.636;2023-07-16T02:11:58;12.98;;;3.80;;
32535;SDS011;18974;50.838;4.636;2023-07-16T02:14:24;13.07;;;4.18;;
32535;SDS011;18974;50.838;4.636;2023-07-16T02:16:49;11.25;;;3.72;;
32535;SDS011;18974;50.838;4.636;2023-07-16T02:19:15;13.82;;;4.15;;
32535;SDS011;18974;50.838;4.636;2023-07-16T02:21:40;10.68;;;3.65;;
32535;SDS011;18974;50.838;4.636;2023-07-16T02:24:06;13.13;;;4.45;;
32535;SDS011;18974;50.838;4.636;2023-07-16T02:26:32;11.05;;;4.57;;
32535;SDS011;18974;50.838;4.636;2023-07-16T02:28:57;17.85;;;5.13;;
32535;SDS011;18974;50.838;4.636;2023-07-16T02:31:24;14.05;;;4.72;;
32535;SDS011;18974;50.838;4.636;2023-07-16T02:33:50;17.65;;;4.50;;
32535;SDS011;18974;50.838;4.636;2023-07-16T02:36:15;12.57;;;4.60;;
32535;SDS011;18974;50.838;4.636;2023-07-16T02:38:41;15.10;;;5.15;;
32535;SDS011;18974;50.838;4.636;2023-07-16T02:41:07;13.73;;;5.90;;
32535;SDS011;18974;50.838;4.636;2023-07-16T02:43:32;17.45;;;5.38;;
32535;SDS011;18974;50.838;4.636;2023-07-16T02:45:58;14.00;;;5.00;;
32535;SDS011;18974;50.838;4.636;2023-07-16T02:48:24;9.60;;;5.20;;
32535;SDS011;18974;50.838;4.636;2023-07-16T02:50:49;21.67;;;5.43;;
32535;SDS011;18974;50.838;4.636;2023-07-16T02:53:15;15.60;;;5.28;;
32535;SDS011;18974;50.838;4.636;2023-07-16T02:55:41;13.57;;;5.05;;
32535;SDS011;18974;50.838;4.636;2023-07-16T02:58:06;15.25;;;5.50;;
32535;SDS011;18974;50.838;4.636;2023-07-16T03:00:32;15.52;;;7.00;;
32535;SDS011;18974;50.838;4.636;2023-07-16T03:02:58;14.45;;;6.78;;
32535;SDS011;18974;50.838;4.636;2023-07-16T03:05:25;22.95;;;7.35;;
32535;SDS011;18974;50.838;4.636;2023-07-16T03:07:54;16.38;;;6.45;;
32535;SDS011;18974;50.838;4.636;2023-07-16T03:10:20;18.52;;;6.55;;
32535;SDS011;18974;50.838;4.636;2023-07-16T03:12:46;17.90;;;6.32;;
32535;SDS011;18974;50.838;4.636;2023-07-16T03:15:12;19.75;;;7.15;;
32535;SDS011;18974;50.838;4.636;2023-07-16T03:17:38;15.25;;;5.68;;
32535;SDS011;18974;50.838;4.636;2023-07-16T03:20:03;11.70;;;6.03;;
32535;SDS011;18974;50.838;4.636;2023-07-16T03:22:30;19.70;;;6.60;;
32535;SDS011;18974;50.838;4.636;2023-07-16T03:24:56;19.63;;;6.43;;
32535;SDS011;18974;50.838;4.636;2023-07-16T03:27:22;18.27;;;6.55;;
32535;SDS011;18974;50.838;4.636;2023-07-16T03:29:48;19.35;;;5.70;;
32535;SDS011;18974;50.838;4.636;2023-07-16T03:32:13;20.52;;;5.97;;
32535;SDS011;18974;50.838;4.636;2023-07-16T03:34:39;19.63;;;5.85;;
32535;SDS011;18974;50.838;4.636;2023-07-16T03:37:05;16.42;;;5.60;;
32535;SDS011;18974;50.838;4.636;2023-07-16T03:39:31;17.42;;;5.68;;
32535;SDS011;18974;50.838;4.636;2023-07-16T03:41:56;13.75;;;5.22;;
32535;SDS011;18974;50.838;4.636;2023-07-16T03:44:22;17.85;;;5.03;;
32535;SDS011;18974;50.838;4.636;2023-07-16T03:46:48;12.93;;;5.15;;
32535;SDS011;18974;50.838;4.636;2023-07-16T03:49:13;19.17;;;6.35;;
32535;SDS011;18974;50.838;4.636;2023-07-16T03:51:39;10.25;;;5.18;;
32535;SDS011;18974;50.838;4.636;2023-07-16T03:54:05;12.65;;;5.15;;
32535;SDS011;18974;50.838;4.636;2023-07-16T03:56:30;24.80;;;5.65;;
32535;SDS011;18974;50.838;4.636;2023-07-16T03:58:56;17.05;;;5.63;;
32535;SDS011;18974;50.838;4.636;2023-07-16T04:01:21;21.15;;;5.38;;
32535;SDS011;18974;50.838;4.636;2023-07-16T04:03:47;10.68;;;4.88;;
32535;SDS011;18974;50.838;4.636;2023-07-16T04:06:13;21.25;;;6.30;;
32535;SDS011;18974;50.838;4.636;2023-07-16T04:08:39;18.50;;;6.25;;
32535;SDS011;18974;50.838;4.636;2023-07-16T04:11:05;21.00;;;6.13;;
32535;SDS011;18974;50.838;4.636;2023-07-16T04:13:31;23.45;;;6.88;;
32535;SDS011;18974;50.838;4.636;2023-07-16T04:15:57;18.40;;;6.45;;
32535;SDS011;18974;50.838;4.636;2023-07-16T04:18:26;17.15;;;6.47;;
32535;SDS011;18974;50.838;4.636;2023-07-16T04:20:52;13.55;;;6.25;;
32535;SDS011;18974;50.838;4.636;2023-07-16T04:23:18;19.60;;;5.72;;
32535;SDS011;18974;50.838;4.636;2023-07-16T04:25:44;17.60;;;6.18;;
32535;SDS011;18974;50.838;4.636;2023-07-16T04:28:10;18.33;;;5.78;;
32535;SDS011;18974;50.838;4.636;2023-07-16T04:30:36;13.02;;;5.63;;
32535;SDS011;18974;50.838;4.636;2023-07-16T04:33:03;18.45;;;6.47;;
32535;SDS011;18974;50.838;4.636;2023-07-16T04:35:28;22.33;;;6.30;;
32535;SDS011;18974;50.838;4.636;2023-07-16T04:37:54;19.08;;;6.38;;
32535;SDS011;18974;50.838;4.636;2023-07-16T04:40:20;18.70;;;6.15;;
32535;SDS011;18974;50.838;4.636;2023-07-16T04:42:45;19.63;;;5.38;;
32535;SDS011;18974;50.838;4.636;2023-07-16T04:45:11;19.70;;;6.93;;
32535;SDS011;18974;50.838;4.636;2023-07-16T04:47:37;13.68;;;5.90;;
32535;SDS011;18974;50.838;4.636;2023-07-16T04:50:03;23.38;;;6.38;;
32535;SDS011;18974;50.838;4.636;2023-07-16T04:52:29;27.38;;;6.85;;
32535;SDS011;18974;50.838;4.636;2023-07-16T04:54:55;18.63;;;7.28;;
32535;SDS011;18974;50.838;4.636;2023-07-16T04:57:21;16.35;;;6.75;;
32535;SDS011;18974;50.838;4.636;2023-07-16T04:59:46;13.02;;;7.03;;
32535;SDS011;18974;50.838;4.636;2023-07-16T05:02:12;21.88;;;7.35;;
32535;SDS011;18974;50.838;4.636;2023-07-16T05:04:39;20.98;;;7.60;;
32535;SDS011;18974;50.838;4.636;2023-07-16T05:07:04;14.65;;;7.15;;
32535;SDS011;18974;50.838;4.636;2023-07-16T05:09:30;16.50;;;6.90;;
32535;SDS011;18974;50.838;4.636;2023-07-16T05:11:56;16.02;;;7.47;;
32535;SDS011;18974;50.838;4.636;2023-07-16T05:14:21;23.02;;;7.95;;
32535;SDS011;18974;50.838;4.636;2023-07-16T05:16:47;23.67;;;7.43;;
32535;SDS011;18974;50.838;4.636;2023-07-16T05:19:13;22.83;;;8.27;;
32535;SDS011;18974;50.838;4.636;2023-07-16T05:21:38;16.50;;;7.03;;
32535;SDS011;18974;50.838;4.636;2023-07-16T05:24:04;18.10;;;7.63;;
32535;SDS011;18974;50.838;4.636;2023-07-16T05:26:30;19.30;;;7.75;;
32535;SDS011;18974;50.838;4.636;2023-07-16T05:28:55;18.85;;;7.38;;
32535;SDS011;18974;50.838;4.636;2023-07-16T05:31:21;19.17;;;7.50;;
32535;SDS011;18974;50.838;4.636;2023-07-16T05:33:47;15.38;;;7.70;;
32535;SDS011;18974;50.838;4.636;2023-07-16T05:36:13;24.10;;;8.07;;
32535;SDS011;18974;50.838;4.636;2023-07-16T05:38:38;19.77;;;7.43;;
32535;SDS011;18974;50.838;4.636;2023-07-16T05:41:04;13.98;;;7.07;;
32535;SDS011;18974;50.838;4.636;2023-07-16T05:43:30;16.85;;;7.40;;
32535;SDS011;18974;50.838;4.636;2023-07-16T05:45:56;20.27;;;8.30;;
32535;SDS011;18974;50.838;4.636;2023-07-16T05:48:23;22.25;;;7.60;;
32535;SDS011;18974;50.838;4.636;2023-07-16T05:50:49;16.95;;;7.47;;
32535;SDS011;18974;50.838;4.636;2023-07-16T05:53:15;16.38;;;7.50;;
32535;SDS011;18974;50.838;4.636;2023-07-16T05:55:41;18.38;;;7.82;;
32535;SDS011;18974;50.838;4.636;2023-07-16T05:58:06;18.92;;;7.38;;
32535;SDS011;18974;50.838;4.636;2023-07-16T06:00:32;13.80;;;6.80;;
32535;SDS011;18974;50.838;4.636;2023-07-16T06:02:58;22.33;;;7.70;;
32535;SDS011;18974;50.838;4.636;2023-07-16T06:05:24;19.80;;;7.30;;
32535;SDS011;18974;50.838;4.636;2023-07-16T06:07:51;20.05;;;8.27;;
32535;SDS011;18974;50.838;4.636;2023-07-16T06:10:17;25.52;;;7.97;;
32535;SDS011;18974;50.838;4.636;2023-07-16T06:12:42;19.63;;;7.47;;
32535;SDS011;18974;50.838;4.636;2023-07-16T06:15:08;17.35;;;7.50;;
32535;SDS011;18974;50.838;4.636;2023-07-16T06:17:34;20.00;;;7.90;;
32535;SDS011;18974;50.838;4.636;2023-07-16T06:20:01;21.48;;;7.47;;
32535;SDS011;18974;50.838;4.636;2023-07-16T06:22:27;19.58;;;8.20;;
32535;SDS011;18974;50.838;4.636;2023-07-16T06:24:53;21.67;;;7.93;;
32535;SDS011;18974;50.838;4.636;2023-07-16T06:27:19;16.35;;;7.53;;
32535;SDS011;18974;50.838;4.636;2023-07-16T06:29:44;19.58;;;7.68;;
32535;SDS011;18974;50.838;4.636;2023-07-16T06:32:10;16.05;;;7.25;;
32535;SDS011;18974;50.838;4.636;2023-07-16T06:34:35;16.50;;;7.82;;
32535;SDS011;18974;50.838;4.636;2023-07-16T06:37:01;21.30;;;8.43;;
32535;SDS011;18974;50.838;4.636;2023-07-16T06:39:27;19.95;;;8.38;;
32535;SDS011;18974;50.838;4.636;2023-07-16T06:41:52;19.33;;;8.07;;
32535;SDS011;18974;50.838;4.636;2023-07-16T06:44:18;16.77;;;7.80;;
32535;SDS011;18974;50.838;4.636;2023-07-16T06:46:44;23.95;;;8.07;;
32535;SDS011;18974;50.838;4.636;2023-07-16T06:49:09;17.90;;;7.80;;
32535;SDS011;18974;50.838;4.636;2023-07-16T06:51:35;17.77;;;7.75;;
32535;SDS011;18974;50.838;4.636;2023-07-16T06:54:01;14.68;;;7.32;;
32535;SDS011;18974;50.838;4.636;2023-07-16T06:56:26;17.00;;;7.28;;
32535;SDS011;18974;50.838;4.636;2023-07-16T06:58:52;17.48;;;7.80;;
32535;SDS011;18974;50.838;4.636;2023-07-16T07:01:18;18.40;;;7.50;;
32535;SDS011;18974;50.838;4.636;2023-07-16T07:03:43;18.85;;;7.88;;
32535;SDS011;18974;50.838;4.636;2023-07-16T07:06:09;20.48;;;7.68;;
32535;SDS011;18974;50.838;4.636;2023-07-16T07:08:36;17.33;;;7.50;;
32535;SDS011;18974;50.838;4.636;2023-07-16T07:11:03;15.95;;;7.13;;
32535;SDS011;18974;50.838;4.636;2023-07-16T07:13:29;15.90;;;7.35;;
32535;SDS011;18974;50.838;4.636;2023-07-16T07:15:55;21.30;;;8.57;;
32535;SDS011;18974;50.838;4.636;2023-07-16T07:18:21;17.65;;;8.30;;
32535;SDS011;18974;50.838;4.636;2023-07-16T07:20:47;20.60;;;7.97;;
32535;SDS011;18974;50.838;4.636;2023-07-16T07:23:13;24.63;;;7.78;;
32535;SDS011;18974;50.838;4.636;2023-07-16T07:25:39;16.20;;;7.68;;
32535;SDS011;18974;50.838;4.636;2023-07-16T07:28:05;15.93;;;7.32;;
32535;SDS011;18974;50.838;4.636;2023-07-16T07:30:31;16.52;;;7.70;;
32535;SDS011;18974;50.838;4.636;2023-07-16T07:32:57;18.13;;;7.90;;
32535;SDS011;18974;50.838;4.636;2023-07-16T07:35:23;19.80;;;7.70;;
32535;SDS011;18974;50.838;4.636;2023-07-16T07:37:48;21.60;;;8.05;;
32535;SDS011;18974;50.838;4.636;2023-07-16T07:40:14;16.85;;;7.53;;
32535;SDS011;18974;50.838;4.636;2023-07-16T07:42:39;24.55;;;7.82;;
32535;SDS011;18974;50.838;4.636;2023-07-16T07:45:05;18.55;;;7.50;;
32535;SDS011;18974;50.838;4.636;2023-07-16T07:47:31;12.45;;;7.60;;
32535;SDS011;18974;50.838;4.636;2023-07-16T07:49:57;18.58;;;7.53;;
32535;SDS011;18974;50.838;4.636;2023-07-16T07:52:22;16.65;;;7.80;;
32535;SDS011;18974;50.838;4.636;2023-07-16T07:54:48;16.52;;;7.53;;
32535;SDS011;18974;50.838;4.636;2023-07-16T07:57:14;18.67;;;7.00;;
32535;SDS011;18974;50.838;4.636;2023-07-16T07:59:40;22.25;;;7.88;;
32535;SDS011;18974;50.838;4.636;2023-07-16T08:02:05;13.63;;;7.18;;
32535;SDS011;18974;50.838;4.636;2023-07-16T08:04:31;17.83;;;7.28;;
32535;SDS011;18974;50.838;4.636;2023-07-16T08:06:59;17.58;;;7.35;;
32535;SDS011;18974;50.838;4.636;2023-07-16T08:09:26;16.40;;;7.20;;
32535;SDS011;18974;50.838;4.636;2023-07-16T08:11:52;20.33;;;6.93;;
32535;SDS011;18974;50.838;4.636;2023-07-16T08:14:17;18.83;;;6.90;;
32535;SDS011;18974;50.838;4.636;2023-07-16T08:16:43;14.57;;;6.57;;
32535;SDS011;18974;50.838;4.636;2023-07-16T08:19:09;19.48;;;7.15;;
32535;SDS011;18974;50.838;4.636;2023-07-16T08:21:35;12.95;;;6.70;;
32535;SDS011;18974;50.838;4.636;2023-07-16T08:24:02;21.88;;;7.32;;
32535;SDS011;18974;50.838;4.636;2023-07-16T08:26:30;14.10;;;6.70;;
32535;SDS011;18974;50.838;4.636;2023-07-16T08:28:55;15.15;;;6.38;;
32535;SDS011;18974;50.838;4.636;2023-07-16T08:31:21;13.02;;;7.28;;
32535;SDS011;18974;50.838;4.636;2023-07-16T08:33:47;19.10;;;7.63;;
32535;SDS011;18974;50.838;4.636;2023-07-16T08:36:12;18.23;;;6.82;;
32535;SDS011;18974;50.838;4.636;2023-07-16T08:38:38;19.05;;;6.53;;
32535;SDS011;18974;50.838;4.636;2023-07-16T08:41:04;12.05;;;6.00;;
32535;SDS011;18974;50.838;4.636;2023-07-16T08:43:29;13.05;;;7.00;;
32535;SDS011;18974;50.838;4.636;2023-07-16T08:45:57;13.05;;;6.32;;
32535;SDS011;18974;50.838;4.636;2023-07-16T08:48:25;17.98;;;6.80;;
32535;SDS011;18974;50.838;4.636;2023-07-16T08:50:53;13.85;;;6.10;;
32535;SDS011;18974;50.838;4.636;2023-07-16T08:53:20;14.20;;;5.97;;
32535;SDS011;18974;50.838;4.636;2023-07-16T08:55:46;12.60;;;6.10;;
32535;SDS011;18974;50.838;4.636;2023-07-16T08:58:13;14.18;;;6.18;;
32535;SDS011;18974;50.838;4.636;2023-07-16T09:00:40;15.75;;;5.82;;
32535;SDS011;18974;50.838;4.636;2023-07-16T09:03:13;12.25;;;5.32;;
32535;SDS011;18974;50.838;4.636;2023-07-16T09:05:41;15.98;;;5.97;;
32535;SDS011;18974;50.838;4.636;2023-07-16T09:08:09;11.63;;;5.28;;
32535;SDS011;18974;50.838;4.636;2023-07-16T09:10:35;9.75;;;5.30;;
32535;SDS011;18974;50.838;4.636;2023-07-16T09:13:01;14.05;;;5.28;;
32535;SDS011;18974;50.838;4.636;2023-07-16T09:15:27;15.55;;;5.78;;
32535;SDS011;18974;50.838;4.636;2023-07-16T09:17:54;13.25;;;5.00;;
32535;SDS011;18974;50.838;4.636;2023-07-16T09:20:20;14.35;;;5.28;;
32535;SDS011;18974;50.838;4.636;2023-07-16T09:22:48;11.57;;;5.35;;
32535;SDS011;18974;50.838;4.636;2023-07-16T09:25:15;9.90;;;5.53;;
32535;SDS011;18974;50.838;4.636;2023-07-16T09:27:40;11.35;;;5.95;;
32535;SDS011;18974;50.838;4.636;2023-07-16T09:30:06;9.50;;;5.05;;
32535;SDS011;18974;50.838;4.636;2023-07-16T09:32:39;11.18;;;5.43;;
32535;SDS011;18974;50.838;4.636;2023-07-16T09:35:14;16.67;;;5.28;;
32535;SDS011;18974;50.838;4.636;2023-07-16T09:37:42;8.52;;;4.72;;
32535;SDS011;18974;50.838;4.636;2023-07-16T09:40:08;11.93;;;5.47;;
32535;SDS011;18974;50.838;4.636;2023-07-16T09:42:42;13.38;;;5.68;;
32535;SDS011;18974;50.838;4.636;2023-07-16T09:45:13;10.65;;;5.30;;
32535;SDS011;18974;50.838;4.636;2023-07-16T09:47:44;12.00;;;5.22;;
32535;SDS011;18974;50.838;4.636;2023-07-16T09:50:10;12.38;;;5.50;;
32535;SDS011;18974;50.838;4.636;2023-07-16T09:52:37;14.85;;;5.53;;
32535;SDS011;18974;50.838;4.636;2023-07-16T09:55:05;9.73;;;4.97;;
32535;SDS011;18974;50.838;4.636;2023-07-16T09:57:37;12.15;;;5.30;;
32535;SDS011;18974;50.838;4.636;2023-07-16T10:00:06;10.38;;;5.07;;
32535;SDS011;18974;50.838;4.636;2023-07-16T10:02:38;13.45;;;5.40;;
32535;SDS011;18974;50.838;4.636;2023-07-16T10:07:54;12.10;;;5.50;;
32535;SDS011;18974;50.838;4.636;2023-07-16T10:13:18;11.98;;;5.72;;
32535;SDS011;18974;50.838;4.636;2023-07-16T10:15:55;13.80;;;5.20;;
32535;SDS011;18974;50.838;4.636;2023-07-16T10:18:24;13.15;;;5.28;;
32535;SDS011;18974;50.838;4.636;2023-07-16T10:21:05;12.15;;;5.25;;
32535;SDS011;18974;50.838;4.636;2023-07-16T10:26:05;12.57;;;4.85;;
32535;SDS011;18974;50.838;4.636;2023-07-16T10:28:32;14.85;;;5.35;;
32535;SDS011;18974;50.838;4.636;2023-07-16T10:30:58;10.98;;;5.07;;
32535;SDS011;18974;50.838;4.636;2023-07-16T10:33:24;11.48;;;5.47;;
32535;SDS011;18974;50.838;4.636;2023-07-16T10:35:50;12.80;;;5.30;;
32535;SDS011;18974;50.838;4.636;2023-07-16T10:38:16;11.77;;;5.20;;
32535;SDS011;18974;50.838;4.636;2023-07-16T10:40:45;10.57;;;5.00;;
32535;SDS011;18974;50.838;4.636;2023-07-16T10:43:11;12.40;;;5.80;;
32535;SDS011;18974;50.838;4.636;2023-07-16T10:45:37;13.55;;;5.68;;
32535;SDS011;18974;50.838;4.636;2023-07-16T10:48:04;13.27;;;5.18;;
32535;SDS011;18974;50.838;4.636;2023-07-16T10:50:33;12.80;;;4.90;;
32535;SDS011;18974;50.838;4.636;2023-07-16T10:53:00;13.88;;;5.25;;
32535;SDS011;18974;50.838;4.636;2023-07-16T10:55:26;16.52;;;5.65;;
32535;SDS011;18974;50.838;4.636;2023-07-16T10:57:53;11.38;;;4.53;;
32535;SDS011;18974;50.838;4.636;2023-07-16T11:00:20;14.77;;;4.90;;
32535;SDS011;18974;50.838;4.636;2023-07-16T11:02:46;16.27;;;5.38;;
32535;SDS011;18974;50.838;4.636;2023-07-16T11:05:14;11.57;;;5.40;;
32535;SDS011;18974;50.838;4.636;2023-07-16T11:07:44;12.93;;;4.93;;
32535;SDS011;18974;50.838;4.636;2023-07-16T11:10:11;11.48;;;5.43;;
32535;SDS011;18974;50.838;4.636;2023-07-16T11:12:37;10.80;;;4.47;;
32535;SDS011;18974;50.838;4.636;2023-07-16T11:15:03;9.07;;;4.78;;
32535;SDS011;18974;50.838;4.636;2023-07-16T11:17:29;10.18;;;4.55;;
32535;SDS011;18974;50.838;4.636;2023-07-16T11:19:55;11.07;;;4.50;;
32535;SDS011;18974;50.838;4.636;2023-07-16T11:22:27;11.73;;;4.43;;
32535;SDS011;18974;50.838;4.636;2023-07-16T11:24:53;13.38;;;4.78;;
32535;SDS011;18974;50.838;4.636;2023-07-16T11:27:26;10.27;;;4.22;;
32535;SDS011;18974;50.838;4.636;2023-07-16T11:29:56;10.38;;;4.28;;
32535;SDS011;18974;50.838;4.636;2023-07-16T11:34:55;11.73;;;4.20;;
32535;SDS011;18974;50.838;4.636;2023-07-16T11:37:22;9.45;;;4.55;;
32535;SDS011;18974;50.838;4.636;2023-07-16T11:39:49;9.45;;;4.60;;
32535;SDS011;18974;50.838;4.636;2023-07-16T11:42:18;11.18;;;4.70;;
32535;SDS011;18974;50.838;4.636;2023-07-16T11:44:57;9.15;;;3.90;;
32535;SDS011;18974;50.838;4.636;2023-07-16T11:47:23;10.88;;;4.13;;
32535;SDS011;18974;50.838;4.636;2023-07-16T11:49:49;12.80;;;4.53;;
32535;SDS011;18974;50.838;4.636;2023-07-16T11:52:25;8.00;;;3.78;;
32535;SDS011;18974;50.838;4.636;2023-07-16T11:54:54;15.80;;;5.20;;
32535;SDS011;18974;50.838;4.636;2023-07-16T11:57:22;12.02;;;4.20;;
32535;SDS011;18974;50.838;4.636;2023-07-16T11:59:48;9.13;;;4.50;;
32535;SDS011;18974;50.838;4.636;2023-07-16T12:02:14;9.73;;;4.13;;
32535;SDS011;18974;50.838;4.636;2023-07-16T12:04:40;10.07;;;3.97;;
32535;SDS011;18974;50.838;4.636;2023-07-16T12:07:06;14.10;;;4.55;;
32535;SDS011;18974;50.838;4.636;2023-07-16T12:09:32;10.05;;;4.18;;
32535;SDS011;18974;50.838;4.636;2023-07-16T12:11:58;7.72;;;4.03;;
32535;SDS011;18974;50.838;4.636;2023-07-16T12:14:25;12.18;;;4.38;;
32535;SDS011;18974;50.838;4.636;2023-07-16T12:16:52;11.02;;;4.65;;
32535;SDS011;18974;50.838;4.636;2023-07-16T12:19:17;7.65;;;4.15;;
32535;SDS011;18974;50.838;4.636;2023-07-16T12:21:43;10.02;;;4.40;;
32535;SDS011;18974;50.838;4.636;2023-07-16T12:24:09;11.57;;;4.20;;
32535;SDS011;18974;50.838;4.636;2023-07-16T12:26:35;10.60;;;4.70;;
32535;SDS011;18974;50.838;4.636;2023-07-16T12:29:00;8.25;;;4.15;;
32535;SDS011;18974;50.838;4.636;2023-07-16T12:31:33;9.55;;;3.88;;
32535;SDS011;18974;50.838;4.636;2023-07-16T12:33:59;10.20;;;4.28;;
32535;SDS011;18974;50.838;4.636;2023-07-16T12:36:29;9.75;;;3.63;;
32535;SDS011;18974;50.838;4.636;2023-07-16T12:38:55;8.15;;;4.22;;
32535;SDS011;18974;50.838;4.636;2023-07-16T12:41:21;9.75;;;4.10;;
32535;SDS011;18974;50.838;4.636;2023-07-16T12:43:46;10.63;;;4.70;;
32535;SDS011;18974;50.838;4.636;2023-07-16T12:46:12;12.45;;;4.03;;
32535;SDS011;18974;50.838;4.636;2023-07-16T12:48:38;7.10;;;3.80;;
32535;SDS011;18974;50.838;4.636;2023-07-16T12:51:04;12.90;;;3.95;;
32535;SDS011;18974;50.838;4.636;2023-07-16T12:53:29;12.43;;;4.30;;
32535;SDS011;18974;50.838;4.636;2023-07-16T12:55:55;6.85;;;3.60;;
32535;SDS011;18974;50.838;4.636;2023-07-16T12:58:21;10.98;;;4.00;;
32535;SDS011;18974;50.838;4.636;2023-07-16T13:00:47;8.13;;;4.03;;
32535;SDS011;18974;50.838;4.636;2023-07-16T13:03:13;14.02;;;4.25;;
32535;SDS011;18974;50.838;4.636;2023-07-16T13:05:41;9.93;;;3.88;;
32535;SDS011;18974;50.838;4.636;2023-07-16T13:08:08;8.63;;;4.00;;
32535;SDS011;18974;50.838;4.636;2023-07-16T13:10:34;9.32;;;4.45;;
32535;SDS011;18974;50.838;4.636;2023-07-16T13:13:00;11.60;;;4.03;;
32535;SDS011;18974;50.838;4.636;2023-07-16T13:15:26;8.75;;;4.25;;
32535;SDS011;18974;50.838;4.636;2023-07-16T13:17:51;9.90;;;3.92;;
32535;SDS011;18974;50.838;4.636;2023-07-16T13:20:18;10.68;;;4.47;;
32535;SDS011;18974;50.838;4.636;2023-07-16T13:22:45;7.85;;;3.90;;
32535;SDS011;18974;50.838;4.636;2023-07-16T13:25:10;14.25;;;4.45;;
32535;SDS011;18974;50.838;4.636;2023-07-16T13:27:36;8.07;;;3.92;;
32535;SDS011;18974;50.838;4.636;2023-07-16T13:30:02;10.38;;;3.88;;
32535;SDS011;18974;50.838;4.636;2023-07-16T13:32:28;8.20;;;3.38;;
32535;SDS011;18974;50.838;4.636;2023-07-16T13:34:54;9.25;;;3.90;;
32535;SDS011;18974;50.838;4.636;2023-07-16T13:37:19;9.85;;;3.88;;
32535;SDS011;18974;50.838;4.636;2023-07-16T13:39:45;7.10;;;3.45;;
32535;SDS011;18974;50.838;4.636;2023-07-16T13:42:11;9.32;;;2.95;;
32535;SDS011;18974;50.838;4.636;2023-07-16T13:44:36;7.78;;;3.15;;
32535;SDS011;18974;50.838;4.636;2023-07-16T13:47:02;6.97;;;3.30;;
32535;SDS011;18974;50.838;4.636;2023-07-16T13:49:28;10.63;;;3.33;;
32535;SDS011;18974;50.838;4.636;2023-07-16T13:51:55;6.05;;;3.33;;
32535;SDS011;18974;50.838;4.636;2023-07-16T13:54:21;6.57;;;3.40;;
32535;SDS011;18974;50.838;4.636;2023-07-16T13:56:47;5.63;;;3.20;;
32535;SDS011;18974;50.838;4.636;2023-07-16T13:59:13;5.88;;;2.78;;
32535;SDS011;18974;50.838;4.636;2023-07-16T14:01:39;7.97;;;3.38;;
32535;SDS011;18974;50.838;4.636;2023-07-16T14:04:05;6.70;;;3.28;;
32535;SDS011;18974;50.838;4.636;2023-07-16T14:06:31;5.88;;;3.72;;
32535;SDS011;18974;50.838;4.636;2023-07-16T14:08:57;7.93;;;3.85;;
32535;SDS011;18974;50.838;4.636;2023-07-16T14:11:24;6.18;;;3.50;;
32535;SDS011;18974;50.838;4.636;2023-07-16T14:13:49;8.57;;;3.88;;
32535;SDS011;18974;50.838;4.636;2023-07-16T14:16:19;8.98;;;3.50;;
32535;SDS011;18974;50.838;4.636;2023-07-16T14:18:49;6.32;;;3.30;;
32535;SDS011;18974;50.838;4.636;2023-07-16T14:21:16;8.90;;;3.70;;
32535;SDS011;18974;50.838;4.636;2023-07-16T14:23:42;4.57;;;3.13;;
32535;SDS011;18974;50.838;4.636;2023-07-16T14:26:08;8.60;;;3.30;;
32535;SDS011;18974;50.838;4.636;2023-07-16T14:28:34;8.50;;;3.05;;
32535;SDS011;18974;50.838;4.636;2023-07-16T14:30:59;4.63;;;2.72;;
32535;SDS011;18974;50.838;4.636;2023-07-16T14:33:25;6.88;;;3.25;;
32535;SDS011;18974;50.838;4.636;2023-07-16T14:35:51;5.45;;;3.05;;
32535;SDS011;18974;50.838;4.636;2023-07-16T14:38:16;6.35;;;2.88;;
32535;SDS011;18974;50.838;4.636;2023-07-16T14:40:42;6.95;;;2.95;;
32535;SDS011;18974;50.838;4.636;2023-07-16T14:43:07;7.70;;;3.22;;
32535;SDS011;18974;50.838;4.636;2023-07-16T14:45:34;8.48;;;3.75;;